sensor_id;sensor_type;location;lat;lon;timestamp;temperature;humidity
32536;DHT22;18974;50.838;4.636;2023-05-10T00:00:08;14.10;99.90
32536;DHT22;18974;50.838;4.636;2023-05-10T00:02:34;14.10;99.90
32536;DHT22;18974;50.838;4.636;2023-05-10T00:05:00;14.20;99.90
32536;DHT22;18974;50.838;4.636;2023-05-10T00:07:26;14.20;99.90
32536;DHT22;18974;50.838;4.636;2023-05-10T00:09:52;14.20;99.90
32536;DHT22;18974;50.838;4.636;2023-05-10T00:12:18;14.20;99.90
32536;DHT22;18974;50.838;4.636;2023-05-10T00:14:43;14.20;99.90
32536;DHT22;18974;50.838;4.636;2023-05-10T00:17:09;14.20;99.90
32536;DHT22;18974;50.838;4.636;2023-05-10T00:19:35;14.30;99.90
32536;DHT22;18974;50.838;4.636;2023-05-10T00:22:00;14.30;99.90
32536;DHT22;18974;50.838;4.636;2023-05-10T00:24:27;14.40;99.90
32536;DHT22;18974;50.838;4.636;2023-05-10T00:26:52;14.30;99.90
32536;DHT22;18974;50.838;4.636;2023-05-10T00:29:18;14.40;99.90
32536;DHT22;18974;50.838;4.636;2023-05-10T00:31:44;14.30;99.90
32536;DHT22;18974;50.838;4.636;2023-05-10T00:34:10;14.40;99.90
32536;DHT22;18974;50.838;4.636;2023-05-10T00:36:36;14.30;99.90
32536;DHT22;18974;50.838;4.636;2023-05-10T00:39:02;14.40;99.90
32536;DHT22;18974;50.838;4.636;2023-05-10T00:41:29;14.40;99.90
32536;DHT22;18974;50.838;4.636;2023-05-10T00:43:58;14.60;99.90
32536;DHT22;18974;50.838;4.636;2023-05-10T00:46:24;14.50;99.90
32536;DHT22;18974;50.838;4.636;2023-05-10T00:48:51;14.50;99.90
32536;DHT22;18974;50.838;4.636;2023-05-10T00:51:18;14.40;99.90
32536;DHT22;18974;50.838;4.636;2023-05-10T00:53:45;14.40;99.90
32536;DHT22;18974;50.838;4.636;2023-05-10T00:56:12;14.40;99.90
32536;DHT22;18974;50.838;4.636;2023-05-10T00:58:38;14.40;99.90
32536;DHT22;18974;50.838;4.636;2023-05-10T01:01:05;14.40;99.90
32536;DHT22;18974;50.838;4.636;2023-05-10T01:03:32;14.40;99.90
32536;DHT22;18974;50.838;4.636;2023-05-10T01:05:58;14.40;99.90
32536;DHT22;18974;50.838;4.636;2023-05-10T01:08:24;14.40;99.90
32536;DHT22;18974;50.838;4.636;2023-05-10T01:10:51;14.30;99.90
32536;DHT22;18974;50.838;4.636;2023-05-10T01:13:30;14.40;99.90
32536;DHT22;18974;50.838;4.636;2023-05-10T01:15:57;14.40;99.90
32536;DHT22;18974;50.838;4.636;2023-05-10T01:18:24;14.40;99.90
32536;DHT22;18974;50.838;4.636;2023-05-10T01:21:04;14.50;99.90
32536;DHT22;18974;50.838;4.636;2023-05-10T01:23:53;14.50;99.90
32536;DHT22;18974;50.838;4.636;2023-05-10T01:29:55;14.50;99.90
32536;DHT22;18974;50.838;4.636;2023-05-10T01:32:43;14.60;99.90
32536;DHT22;18974;50.838;4.636;2023-05-10T01:35:38;14.50;99.90
32536;DHT22;18974;50.838;4.636;2023-05-10T01:38:32;14.40;99.90
32536;DHT22;18974;50.838;4.636;2023-05-10T01:41:18;14.40;99.90
32536;DHT22;18974;50.838;4.636;2023-05-10T01:44:01;14.40;99.90
32536;DHT22;18974;50.838;4.636;2023-05-10T01:46:38;14.40;99.90
32536;DHT22;18974;50.838;4.636;2023-05-10T01:49:14;14.40;99.90
32536;DHT22;18974;50.838;4.636;2023-05-10T01:51:50;14.40;99.90
32536;DHT22;18974;50.838;4.636;2023-05-10T01:54:19;14.40;99.90
32536;DHT22;18974;50.838;4.636;2023-05-10T01:56:48;14.40;99.90
32536;DHT22;18974;50.838;4.636;2023-05-10T01:59:18;14.40;99.90
32536;DHT22;18974;50.838;4.636;2023-05-10T02:01:46;14.40;99.90
32536;DHT22;18974;50.838;4.636;2023-05-10T02:04:15;14.50;99.90
32536;DHT22;18974;50.838;4.636;2023-05-10T02:06:43;14.50;99.90
32536;DHT22;18974;50.838;4.636;2023-05-10T02:09:11;14.40;99.90
32536;DHT22;18974;50.838;4.636;2023-05-10T02:11:39;14.40;99.90
32536;DHT22;18974;50.838;4.636;2023-05-10T02:14:08;14.30;99.90
32536;DHT22;18974;50.838;4.636;2023-05-10T02:16:35;14.30;99.90
32536;DHT22;18974;50.838;4.636;2023-05-10T02:19:02;14.30;99.90
32536;DHT22;18974;50.838;4.636;2023-05-10T02:21:29;14.30;99.90
32536;DHT22;18974;50.838;4.636;2023-05-10T02:23:57;14.40;99.90
32536;DHT22;18974;50.838;4.636;2023-05-10T02:26:24;14.40;99.90
32536;DHT22;18974;50.838;4.636;2023-05-10T02:28:52;14.30;99.90
32536;DHT22;18974;50.838;4.636;2023-05-10T02:31:19;14.30;99.90
32536;DHT22;18974;50.838;4.636;2023-05-10T02:33:45;14.30;99.90
32536;DHT22;18974;50.838;4.636;2023-05-10T02:36:12;14.40;99.90
32536;DHT22;18974;50.838;4.636;2023-05-10T02:38:39;14.40;99.90
32536;DHT22;18974;50.838;4.636;2023-05-10T02:41:05;14.40;99.90
32536;DHT22;18974;50.838;4.636;2023-05-10T02:43:33;14.50;99.90
32536;DHT22;18974;50.838;4.636;2023-05-10T02:46:01;14.50;99.90
32536;DHT22;18974;50.838;4.636;2023-05-10T02:48:27;14.50;99.90
32536;DHT22;18974;50.838;4.636;2023-05-10T02:50:55;14.50;99.90
32536;DHT22;18974;50.838;4.636;2023-05-10T02:53:31;14.50;99.90
32536;DHT22;18974;50.838;4.636;2023-05-10T02:56:00;14.60;99.90
32536;DHT22;18974;50.838;4.636;2023-05-10T02:58:27;14.50;99.90
32536;DHT22;18974;50.838;4.636;2023-05-10T03:00:52;14.60;99.90
32536;DHT22;18974;50.838;4.636;2023-05-10T03:03:19;14.60;99.90
32536;DHT22;18974;50.838;4.636;2023-05-10T03:05:45;14.60;99.90
32536;DHT22;18974;50.838;4.636;2023-05-10T03:08:11;14.60;99.90
32536;DHT22;18974;50.838;4.636;2023-05-10T03:10:48;14.50;99.90
32536;DHT22;18974;50.838;4.636;2023-05-10T03:13:31;14.50;99.90
32536;DHT22;18974;50.838;4.636;2023-05-10T03:16:10;14.50;99.90
32536;DHT22;18974;50.838;4.636;2023-05-10T03:21:11;14.60;99.90
32536;DHT22;18974;50.838;4.636;2023-05-10T03:23:44;14.60;99.90
32536;DHT22;18974;50.838;4.636;2023-05-10T03:26:23;14.60;99.90
32536;DHT22;18974;50.838;4.636;2023-05-10T03:28:49;14.50;99.90
32536;DHT22;18974;50.838;4.636;2023-05-10T03:31:17;14.50;99.90
32536;DHT22;18974;50.838;4.636;2023-05-10T03:33:47;14.40;99.90
32536;DHT22;18974;50.838;4.636;2023-05-10T03:36:13;14.50;99.90
32536;DHT22;18974;50.838;4.636;2023-05-10T03:38:39;14.50;99.90
32536;DHT22;18974;50.838;4.636;2023-05-10T03:41:05;14.40;99.90
32536;DHT22;18974;50.838;4.636;2023-05-10T03:43:31;14.50;99.90
32536;DHT22;18974;50.838;4.636;2023-05-10T03:45:56;14.50;99.90
32536;DHT22;18974;50.838;4.636;2023-05-10T03:48:22;14.40;99.90
32536;DHT22;18974;50.838;4.636;2023-05-10T03:50:48;14.40;99.90
32536;DHT22;18974;50.838;4.636;2023-05-10T03:53:15;14.40;99.90
32536;DHT22;18974;50.838;4.636;2023-05-10T03:55:41;14.50;99.90
32536;DHT22;18974;50.838;4.636;2023-05-10T03:58:06;14.60;99.90
32536;DHT22;18974;50.838;4.636;2023-05-10T04:00:35;14.50;99.90
32536;DHT22;18974;50.838;4.636;2023-05-10T04:03:01;14.50;99.90
32536;DHT22;18974;50.838;4.636;2023-05-10T04:05:27;14.40;99.90
32536;DHT22;18974;50.838;4.636;2023-05-10T04:07:52;14.40;99.90
32536;DHT22;18974;50.838;4.636;2023-05-10T04:10:18;14.40;99.90
32536;DHT22;18974;50.838;4.636;2023-05-10T04:12:44;14.40;99.90
32536;DHT22;18974;50.838;4.636;2023-05-10T04:15:10;14.40;99.90
32536;DHT22;18974;50.838;4.636;2023-05-10T04:17:35;14.30;99.90
32536;DHT22;18974;50.838;4.636;2023-05-10T04:20:01;14.30;99.90
32536;DHT22;18974;50.838;4.636;2023-05-10T04:22:27;14.30;99.90
32536;DHT22;18974;50.838;4.636;2023-05-10T04:24:54;14.30;99.90
32536;DHT22;18974;50.838;4.636;2023-05-10T04:27:20;14.30;99.90
32536;DHT22;18974;50.838;4.636;2023-05-10T04:29:45;14.30;99.90
32536;DHT22;18974;50.838;4.636;2023-05-10T04:32:11;14.20;99.90
32536;DHT22;18974;50.838;4.636;2023-05-10T04:34:37;14.20;99.90
32536;DHT22;18974;50.838;4.636;2023-05-10T04:37:03;14.20;99.90
32536;DHT22;18974;50.838;4.636;2023-05-10T04:39:28;14.20;99.90
32536;DHT22;18974;50.838;4.636;2023-05-10T04:41:54;14.20;99.90
32536;DHT22;18974;50.838;4.636;2023-05-10T04:44:20;14.30;99.90
32536;DHT22;18974;50.838;4.636;2023-05-10T04:46:46;14.30;99.90
32536;DHT22;18974;50.838;4.636;2023-05-10T04:49:11;14.30;99.90
32536;DHT22;18974;50.838;4.636;2023-05-10T04:51:37;14.20;99.90
32536;DHT22;18974;50.838;4.636;2023-05-10T04:54:03;14.20;99.90
32536;DHT22;18974;50.838;4.636;2023-05-10T04:56:28;14.20;99.90
32536;DHT22;18974;50.838;4.636;2023-05-10T04:58:54;14.30;99.90
32536;DHT22;18974;50.838;4.636;2023-05-10T05:01:20;14.30;99.90
32536;DHT22;18974;50.838;4.636;2023-05-10T05:03:45;14.30;99.90
32536;DHT22;18974;50.838;4.636;2023-05-10T05:06:11;14.30;99.90
32536;DHT22;18974;50.838;4.636;2023-05-10T05:08:37;14.40;99.90
32536;DHT22;18974;50.838;4.636;2023-05-10T05:11:02;14.30;99.90
32536;DHT22;18974;50.838;4.636;2023-05-10T05:13:28;14.40;99.90
32536;DHT22;18974;50.838;4.636;2023-05-10T05:15:54;14.40;99.90
32536;DHT22;18974;50.838;4.636;2023-05-10T05:18:20;14.50;99.90
32536;DHT22;18974;50.838;4.636;2023-05-10T05:20:45;14.40;99.90
32536;DHT22;18974;50.838;4.636;2023-05-10T05:23:11;14.50;99.90
32536;DHT22;18974;50.838;4.636;2023-05-10T05:25:37;14.50;99.90
32536;DHT22;18974;50.838;4.636;2023-05-10T05:28:03;14.50;99.90
32536;DHT22;18974;50.838;4.636;2023-05-10T05:30:28;14.50;99.90
32536;DHT22;18974;50.838;4.636;2023-05-10T05:32:54;14.50;99.90
32536;DHT22;18974;50.838;4.636;2023-05-10T05:35:20;14.50;99.90
32536;DHT22;18974;50.838;4.636;2023-05-10T05:37:46;14.50;99.90
32536;DHT22;18974;50.838;4.636;2023-05-10T05:40:15;14.50;99.90
32536;DHT22;18974;50.838;4.636;2023-05-10T05:42:40;14.60;99.90
32536;DHT22;18974;50.838;4.636;2023-05-10T05:45:07;14.60;99.90
32536;DHT22;18974;50.838;4.636;2023-05-10T05:47:34;14.60;99.90
32536;DHT22;18974;50.838;4.636;2023-05-10T05:49:59;14.60;99.90
32536;DHT22;18974;50.838;4.636;2023-05-10T05:52:25;14.50;99.90
32536;DHT22;18974;50.838;4.636;2023-05-10T05:54:51;14.60;99.90
32536;DHT22;18974;50.838;4.636;2023-05-10T05:57:17;14.50;99.90
32536;DHT22;18974;50.838;4.636;2023-05-10T05:59:43;14.60;99.90
32536;DHT22;18974;50.838;4.636;2023-05-10T06:02:10;14.60;99.90
32536;DHT22;18974;50.838;4.636;2023-05-10T06:04:35;14.60;99.90
32536;DHT22;18974;50.838;4.636;2023-05-10T06:07:01;14.60;99.90
32536;DHT22;18974;50.838;4.636;2023-05-10T06:09:27;14.60;99.90
32536;DHT22;18974;50.838;4.636;2023-05-10T06:11:52;14.70;99.90
32536;DHT22;18974;50.838;4.636;2023-05-10T06:14:20;14.70;99.90
32536;DHT22;18974;50.838;4.636;2023-05-10T06:16:46;14.70;99.90
32536;DHT22;18974;50.838;4.636;2023-05-10T06:19:12;14.60;99.90
32536;DHT22;18974;50.838;4.636;2023-05-10T06:21:38;14.70;99.90
32536;DHT22;18974;50.838;4.636;2023-05-10T06:24:05;14.80;99.90
32536;DHT22;18974;50.838;4.636;2023-05-10T06:26:32;14.90;99.90
32536;DHT22;18974;50.838;4.636;2023-05-10T06:28:58;14.80;99.90
32536;DHT22;18974;50.838;4.636;2023-05-10T06:31:24;14.80;99.90
32536;DHT22;18974;50.838;4.636;2023-05-10T06:33:49;14.70;99.90
32536;DHT22;18974;50.838;4.636;2023-05-10T06:36:15;14.70;99.90
32536;DHT22;18974;50.838;4.636;2023-05-10T06:38:41;14.80;99.90
32536;DHT22;18974;50.838;4.636;2023-05-10T06:41:06;14.90;99.90
32536;DHT22;18974;50.838;4.636;2023-05-10T06:43:32;14.90;99.90
32536;DHT22;18974;50.838;4.636;2023-05-10T06:45:58;15.00;99.90
32536;DHT22;18974;50.838;4.636;2023-05-10T06:48:23;15.00;99.90
32536;DHT22;18974;50.838;4.636;2023-05-10T06:50:49;15.00;99.90
32536;DHT22;18974;50.838;4.636;2023-05-10T06:53:15;15.10;99.90
32536;DHT22;18974;50.838;4.636;2023-05-10T06:55:41;15.10;99.90
32536;DHT22;18974;50.838;4.636;2023-05-10T06:58:06;14.90;99.90
32536;DHT22;18974;50.838;4.636;2023-05-10T07:00:32;14.90;99.90
32536;DHT22;18974;50.838;4.636;2023-05-10T07:02:58;14.90;99.90
32536;DHT22;18974;50.838;4.636;2023-05-10T07:05:24;15.10;99.90
32536;DHT22;18974;50.838;4.636;2023-05-10T07:07:49;15.10;99.90
32536;DHT22;18974;50.838;4.636;2023-05-10T07:10:15;15.10;99.90
32536;DHT22;18974;50.838;4.636;2023-05-10T07:12:41;15.10;99.90
32536;DHT22;18974;50.838;4.636;2023-05-10T07:15:07;15.20;99.90
32536;DHT22;18974;50.838;4.636;2023-05-10T07:17:33;15.10;99.90
32536;DHT22;18974;50.838;4.636;2023-05-10T07:19:59;15.10;99.90
32536;DHT22;18974;50.838;4.636;2023-05-10T07:22:25;15.00;99.90
32536;DHT22;18974;50.838;4.636;2023-05-10T07:24:51;15.10;99.90
32536;DHT22;18974;50.838;4.636;2023-05-10T07:27:17;15.10;99.90
32536;DHT22;18974;50.838;4.636;2023-05-10T07:29:42;15.20;99.90
32536;DHT22;18974;50.838;4.636;2023-05-10T07:32:08;15.30;99.90
32536;DHT22;18974;50.838;4.636;2023-05-10T07:34:33;15.30;99.90
32536;DHT22;18974;50.838;4.636;2023-05-10T07:37:00;15.40;99.90
32536;DHT22;18974;50.838;4.636;2023-05-10T07:39:26;15.40;99.90
32536;DHT22;18974;50.838;4.636;2023-05-10T07:41:52;15.40;99.90
32536;DHT22;18974;50.838;4.636;2023-05-10T07:44:18;15.30;99.90
32536;DHT22;18974;50.838;4.636;2023-05-10T07:46:46;15.40;99.90
32536;DHT22;18974;50.838;4.636;2023-05-10T07:49:11;15.30;99.90
32536;DHT22;18974;50.838;4.636;2023-05-10T07:51:37;15.30;99.90
32536;DHT22;18974;50.838;4.636;2023-05-10T07:54:03;15.30;99.90
32536;DHT22;18974;50.838;4.636;2023-05-10T07:56:30;15.20;99.90
32536;DHT22;18974;50.838;4.636;2023-05-10T07:59:00;15.00;99.90
32536;DHT22;18974;50.838;4.636;2023-05-10T08:01:26;15.20;99.90
32536;DHT22;18974;50.838;4.636;2023-05-10T08:03:55;15.20;99.90
32536;DHT22;18974;50.838;4.636;2023-05-10T08:06:20;15.20;99.90
32536;DHT22;18974;50.838;4.636;2023-05-10T08:08:47;15.20;99.90
32536;DHT22;18974;50.838;4.636;2023-05-10T08:11:16;15.20;99.90
32536;DHT22;18974;50.838;4.636;2023-05-10T08:13:43;15.20;99.90
32536;DHT22;18974;50.838;4.636;2023-05-10T08:16:09;15.20;99.90
32536;DHT22;18974;50.838;4.636;2023-05-10T08:18:34;15.10;99.90
32536;DHT22;18974;50.838;4.636;2023-05-10T08:21:00;15.10;99.90
32536;DHT22;18974;50.838;4.636;2023-05-10T08:23:26;15.00;99.90
32536;DHT22;18974;50.838;4.636;2023-05-10T08:25:51;15.00;99.90
32536;DHT22;18974;50.838;4.636;2023-05-10T08:28:17;15.10;99.90
32536;DHT22;18974;50.838;4.636;2023-05-10T08:30:43;15.10;99.90
32536;DHT22;18974;50.838;4.636;2023-05-10T08:33:08;15.20;99.90
32536;DHT22;18974;50.838;4.636;2023-05-10T08:35:34;15.40;99.90
32536;DHT22;18974;50.838;4.636;2023-05-10T08:38:00;15.40;99.90
32536;DHT22;18974;50.838;4.636;2023-05-10T08:40:26;15.50;99.90
32536;DHT22;18974;50.838;4.636;2023-05-10T08:43:06;15.40;99.90
32536;DHT22;18974;50.838;4.636;2023-05-10T08:45:39;15.50;99.90
32536;DHT22;18974;50.838;4.636;2023-05-10T08:48:07;15.60;99.90
32536;DHT22;18974;50.838;4.636;2023-05-10T08:50:38;15.50;99.90
32536;DHT22;18974;50.838;4.636;2023-05-10T08:53:08;15.50;99.90
32536;DHT22;18974;50.838;4.636;2023-05-10T08:55:34;15.40;99.90
32536;DHT22;18974;50.838;4.636;2023-05-10T08:58:03;15.40;99.90
32536;DHT22;18974;50.838;4.636;2023-05-10T09:00:29;15.30;99.90
32536;DHT22;18974;50.838;4.636;2023-05-10T09:02:57;15.20;99.90
32536;DHT22;18974;50.838;4.636;2023-05-10T09:05:23;15.10;99.90
32536;DHT22;18974;50.838;4.636;2023-05-10T09:07:48;15.00;99.90
32536;DHT22;18974;50.838;4.636;2023-05-10T09:10:14;14.90;99.90
32536;DHT22;18974;50.838;4.636;2023-05-10T09:12:40;14.90;99.90
32536;DHT22;18974;50.838;4.636;2023-05-10T09:15:07;14.90;99.90
32536;DHT22;18974;50.838;4.636;2023-05-10T09:17:33;14.90;99.90
32536;DHT22;18974;50.838;4.636;2023-05-10T09:20:00;14.90;99.90
32536;DHT22;18974;50.838;4.636;2023-05-10T09:22:30;14.80;99.90
32536;DHT22;18974;50.838;4.636;2023-05-10T09:25:09;14.70;99.90
32536;DHT22;18974;50.838;4.636;2023-05-10T09:27:36;14.60;99.90
32536;DHT22;18974;50.838;4.636;2023-05-10T09:30:03;14.60;99.90
32536;DHT22;18974;50.838;4.636;2023-05-10T09:32:40;14.60;99.90
32536;DHT22;18974;50.838;4.636;2023-05-10T09:35:07;14.60;99.90
32536;DHT22;18974;50.838;4.636;2023-05-10T09:37:33;14.60;99.90
32536;DHT22;18974;50.838;4.636;2023-05-10T09:39:58;14.60;99.90
32536;DHT22;18974;50.838;4.636;2023-05-10T09:42:24;14.60;99.90
32536;DHT22;18974;50.838;4.636;2023-05-10T09:44:50;14.60;99.90
32536;DHT22;18974;50.838;4.636;2023-05-10T09:47:19;14.60;99.90
32536;DHT22;18974;50.838;4.636;2023-05-10T09:49:49;14.50;99.90
32536;DHT22;18974;50.838;4.636;2023-05-10T09:52:16;14.60;99.90
32536;DHT22;18974;50.838;4.636;2023-05-10T09:54:52;14.70;99.90
32536;DHT22;18974;50.838;4.636;2023-05-10T09:57:22;14.70;99.90
32536;DHT22;18974;50.838;4.636;2023-05-10T09:59:48;14.70;99.90
32536;DHT22;18974;50.838;4.636;2023-05-10T10:02:14;14.80;99.90
32536;DHT22;18974;50.838;4.636;2023-05-10T10:04:40;14.80;99.90
32536;DHT22;18974;50.838;4.636;2023-05-10T10:07:07;14.90;99.90
32536;DHT22;18974;50.838;4.636;2023-05-10T10:09:33;14.90;99.90
32536;DHT22;18974;50.838;4.636;2023-05-10T10:12:01;14.90;99.90
32536;DHT22;18974;50.838;4.636;2023-05-10T10:14:28;15.00;99.90
32536;DHT22;18974;50.838;4.636;2023-05-10T10:16:54;15.10;99.90
32536;DHT22;18974;50.838;4.636;2023-05-10T10:19:20;15.20;99.90
32536;DHT22;18974;50.838;4.636;2023-05-10T10:21:49;15.20;99.90
32536;DHT22;18974;50.838;4.636;2023-05-10T10:24:15;15.30;99.90
32536;DHT22;18974;50.838;4.636;2023-05-10T10:26:42;15.30;99.90
32536;DHT22;18974;50.838;4.636;2023-05-10T10:29:30;15.20;99.90
32536;DHT22;18974;50.838;4.636;2023-05-10T10:32:12;15.20;99.90
32536;DHT22;18974;50.838;4.636;2023-05-10T10:34:44;15.10;99.90
32536;DHT22;18974;50.838;4.636;2023-05-10T10:37:09;15.20;99.90
32536;DHT22;18974;50.838;4.636;2023-05-10T10:39:35;15.10;99.90
32536;DHT22;18974;50.838;4.636;2023-05-10T10:42:02;15.20;99.90
32536;DHT22;18974;50.838;4.636;2023-05-10T10:52:28;15.40;99.90
32536;DHT22;18974;50.838;4.636;2023-05-10T10:57:55;15.40;99.90
32536;DHT22;18974;50.838;4.636;2023-05-10T11:00:38;15.40;99.90
32536;DHT22;18974;50.838;4.636;2023-05-10T11:03:06;15.40;99.90
32536;DHT22;18974;50.838;4.636;2023-05-10T11:05:41;15.40;99.90
32536;DHT22;18974;50.838;4.636;2023-05-10T11:08:30;15.30;99.90
32536;DHT22;18974;50.838;4.636;2023-05-10T11:16:09;15.50;99.90
32536;DHT22;18974;50.838;4.636;2023-05-10T11:18:36;15.60;99.90
32536;DHT22;18974;50.838;4.636;2023-05-10T11:21:03;15.80;99.90
32536;DHT22;18974;50.838;4.636;2023-05-10T11:25:57;16.30;99.90
32536;DHT22;18974;50.838;4.636;2023-05-10T11:28:23;16.50;99.90
32536;DHT22;18974;50.838;4.636;2023-05-10T11:30:48;16.50;99.90
32536;DHT22;18974;50.838;4.636;2023-05-10T11:33:18;16.50;99.90
32536;DHT22;18974;50.838;4.636;2023-05-10T11:35:44;16.60;99.90
32536;DHT22;18974;50.838;4.636;2023-05-10T11:38:11;16.60;99.90
32536;DHT22;18974;50.838;4.636;2023-05-10T11:40:38;16.60;99.90
32536;DHT22;18974;50.838;4.636;2023-05-10T11:43:04;16.60;99.90
32536;DHT22;18974;50.838;4.636;2023-05-10T11:45:35;16.70;99.90
32536;DHT22;18974;50.838;4.636;2023-05-10T11:48:01;16.90;99.90
32536;DHT22;18974;50.838;4.636;2023-05-10T11:50:28;17.20;99.90
32536;DHT22;18974;50.838;4.636;2023-05-10T11:52:57;17.40;99.90
32536;DHT22;18974;50.838;4.636;2023-05-10T11:55:24;17.40;99.90
32536;DHT22;18974;50.838;4.636;2023-05-10T11:58:00;17.30;99.90
32536;DHT22;18974;50.838;4.636;2023-05-10T12:00:27;17.40;99.90
32536;DHT22;18974;50.838;4.636;2023-05-10T12:02:52;17.30;99.90
32536;DHT22;18974;50.838;4.636;2023-05-10T12:05:18;17.30;99.90
32536;DHT22;18974;50.838;4.636;2023-05-10T12:07:44;17.20;99.90
32536;DHT22;18974;50.838;4.636;2023-05-10T12:10:10;17.30;99.90
32536;DHT22;18974;50.838;4.636;2023-05-10T12:12:43;17.40;99.90
32536;DHT22;18974;50.838;4.636;2023-05-10T12:15:18;17.40;99.90
32536;DHT22;18974;50.838;4.636;2023-05-10T12:17:45;17.50;99.90
32536;DHT22;18974;50.838;4.636;2023-05-10T12:20:20;17.70;99.90
32536;DHT22;18974;50.838;4.636;2023-05-10T12:22:51;18.10;99.90
32536;DHT22;18974;50.838;4.636;2023-05-10T12:25:21;18.20;99.90
32536;DHT22;18974;50.838;4.636;2023-05-10T12:27:56;18.50;99.90
32536;DHT22;18974;50.838;4.636;2023-05-10T12:30:29;18.90;99.90
32536;DHT22;18974;50.838;4.636;2023-05-10T12:33:06;19.00;99.90
32536;DHT22;18974;50.838;4.636;2023-05-10T12:35:33;19.10;99.90
32536;DHT22;18974;50.838;4.636;2023-05-10T12:37:59;19.10;99.90
32536;DHT22;18974;50.838;4.636;2023-05-10T12:40:25;19.00;99.90
32536;DHT22;18974;50.838;4.636;2023-05-10T12:42:52;18.70;99.90
32536;DHT22;18974;50.838;4.636;2023-05-10T12:45:18;18.60;99.90
32536;DHT22;18974;50.838;4.636;2023-05-10T12:47:44;18.40;99.90
32536;DHT22;18974;50.838;4.636;2023-05-10T12:50:10;18.60;99.90
32536;DHT22;18974;50.838;4.636;2023-05-10T12:52:36;18.90;99.90
32536;DHT22;18974;50.838;4.636;2023-05-10T12:55:02;19.20;99.90
32536;DHT22;18974;50.838;4.636;2023-05-10T12:57:28;19.70;99.90
32536;DHT22;18974;50.838;4.636;2023-05-10T12:59:54;20.00;99.90
32536;DHT22;18974;50.838;4.636;2023-05-10T13:02:20;20.20;99.90
32536;DHT22;18974;50.838;4.636;2023-05-10T13:04:48;20.30;99.90
32536;DHT22;18974;50.838;4.636;2023-05-10T13:07:14;20.40;99.90
32536;DHT22;18974;50.838;4.636;2023-05-10T13:09:39;20.00;99.90
32536;DHT22;18974;50.838;4.636;2023-05-10T13:12:05;19.90;99.90
32536;DHT22;18974;50.838;4.636;2023-05-10T13:14:31;19.80;99.90
32536;DHT22;18974;50.838;4.636;2023-05-10T13:16:57;19.80;99.90
32536;DHT22;18974;50.838;4.636;2023-05-10T13:19:23;19.70;99.90
32536;DHT22;18974;50.838;4.636;2023-05-10T13:21:48;19.80;99.90
32536;DHT22;18974;50.838;4.636;2023-05-10T13:24:14;20.00;99.90
32536;DHT22;18974;50.838;4.636;2023-05-10T13:26:40;19.80;99.90
32536;DHT22;18974;50.838;4.636;2023-05-10T13:29:06;19.60;99.90
32536;DHT22;18974;50.838;4.636;2023-05-10T13:31:33;19.60;99.90
32536;DHT22;18974;50.838;4.636;2023-05-10T13:33:59;19.40;99.90
32536;DHT22;18974;50.838;4.636;2023-05-10T13:36:25;19.20;99.90
32536;DHT22;18974;50.838;4.636;2023-05-10T13:38:51;18.90;99.90
32536;DHT22;18974;50.838;4.636;2023-05-10T13:41:17;18.70;99.90
32536;DHT22;18974;50.838;4.636;2023-05-10T13:43:43;18.70;99.90
32536;DHT22;18974;50.838;4.636;2023-05-10T13:46:09;18.70;99.90
32536;DHT22;18974;50.838;4.636;2023-05-10T13:48:34;18.90;99.90
32536;DHT22;18974;50.838;4.636;2023-05-10T13:51:02;19.00;99.90
32536;DHT22;18974;50.838;4.636;2023-05-10T13:53:28;19.00;99.90
32536;DHT22;18974;50.838;4.636;2023-05-10T13:55:54;18.90;99.90
32536;DHT22;18974;50.838;4.636;2023-05-10T13:58:19;19.00;99.90
32536;DHT22;18974;50.838;4.636;2023-05-10T14:00:45;19.00;99.90
32536;DHT22;18974;50.838;4.636;2023-05-10T14:03:11;19.00;99.90
32536;DHT22;18974;50.838;4.636;2023-05-10T14:05:36;19.00;99.90
32536;DHT22;18974;50.838;4.636;2023-05-10T14:08:02;19.10;99.90
32536;DHT22;18974;50.838;4.636;2023-05-10T14:10:29;19.10;99.90
32536;DHT22;18974;50.838;4.636;2023-05-10T14:12:55;19.10;99.90
32536;DHT22;18974;50.838;4.636;2023-05-10T14:15:21;19.00;99.90
32536;DHT22;18974;50.838;4.636;2023-05-10T14:17:46;19.00;99.90
32536;DHT22;18974;50.838;4.636;2023-05-10T14:20:12;18.90;99.90
32536;DHT22;18974;50.838;4.636;2023-05-10T14:22:38;19.10;99.90
32536;DHT22;18974;50.838;4.636;2023-05-10T14:25:03;19.30;99.90
32536;DHT22;18974;50.838;4.636;2023-05-10T14:27:29;19.60;99.90
32536;DHT22;18974;50.838;4.636;2023-05-10T14:29:55;19.70;99.90
32536;DHT22;18974;50.838;4.636;2023-05-10T14:32:21;19.90;99.90
32536;DHT22;18974;50.838;4.636;2023-05-10T14:34:47;19.80;99.90
32536;DHT22;18974;50.838;4.636;2023-05-10T14:37:14;19.80;99.90
32536;DHT22;18974;50.838;4.636;2023-05-10T14:39:40;19.80;99.90
32536;DHT22;18974;50.838;4.636;2023-05-10T14:42:07;19.70;99.90
32536;DHT22;18974;50.838;4.636;2023-05-10T14:44:33;19.70;99.90
32536;DHT22;18974;50.838;4.636;2023-05-10T14:46:59;19.50;99.90
32536;DHT22;18974;50.838;4.636;2023-05-10T14:49:25;19.40;99.90
32536;DHT22;18974;50.838;4.636;2023-05-10T14:51:51;19.30;99.90
32536;DHT22;18974;50.838;4.636;2023-05-10T14:54:17;19.20;99.90
32536;DHT22;18974;50.838;4.636;2023-05-10T14:56:43;19.20;99.90
32536;DHT22;18974;50.838;4.636;2023-05-10T14:59:09;19.20;99.90
32536;DHT22;18974;50.838;4.636;2023-05-10T15:01:34;19.20;99.90
32536;DHT22;18974;50.838;4.636;2023-05-10T15:04:03;19.20;99.90
32536;DHT22;18974;50.838;4.636;2023-05-10T15:06:33;19.10;99.90
32536;DHT22;18974;50.838;4.636;2023-05-10T15:08:59;19.00;99.90
32536;DHT22;18974;50.838;4.636;2023-05-10T15:11:25;19.20;99.90
32536;DHT22;18974;50.838;4.636;2023-05-10T15:13:51;19.30;99.90
32536;DHT22;18974;50.838;4.636;2023-05-10T15:16:17;19.30;99.90
32536;DHT22;18974;50.838;4.636;2023-05-10T15:18:42;19.30;99.90
32536;DHT22;18974;50.838;4.636;2023-05-10T15:21:08;19.30;99.90
32536;DHT22;18974;50.838;4.636;2023-05-10T15:23:34;19.30;99.90
32536;DHT22;18974;50.838;4.636;2023-05-10T15:26:00;19.20;99.90
32536;DHT22;18974;50.838;4.636;2023-05-10T15:28:26;19.10;99.90
32536;DHT22;18974;50.838;4.636;2023-05-10T15:30:51;19.10;99.90
32536;DHT22;18974;50.838;4.636;2023-05-10T15:33:17;19.10;99.90
32536;DHT22;18974;50.838;4.636;2023-05-10T15:35:43;18.90;99.90
32536;DHT22;18974;50.838;4.636;2023-05-10T15:38:09;18.80;99.90
32536;DHT22;18974;50.838;4.636;2023-05-10T15:40:35;18.40;99.90
32536;DHT22;18974;50.838;4.636;2023-05-10T15:43:00;18.00;99.90
32536;DHT22;18974;50.838;4.636;2023-05-10T15:45:26;17.70;99.90
32536;DHT22;18974;50.838;4.636;2023-05-10T15:47:52;17.50;99.90
32536;DHT22;18974;50.838;4.636;2023-05-10T15:50:18;17.50;99.90
32536;DHT22;18974;50.838;4.636;2023-05-10T15:52:43;17.20;99.90
32536;DHT22;18974;50.838;4.636;2023-05-10T15:55:09;17.00;99.90